D/T METAR WX W/DIR W/SPE G/SPE TEMP DEWP
15/01/19 20:50 EGAE 152050Z 21013KT 170V230 9999 FEW013 BKN028 10/07 Q1003 SSW (210°) 15.0mph 10°C 7°C
15/01/19 20:20 EGAE 152020Z 22014KT 9999 FEW013 SCT027 10/07 Q1003 SW (220°) 16.1mph 10°C 7°C
15/01/19 19:50 EGAE 151950Z 21013KT 9999 FEW013 BKN022 11/07 Q1003 SSW (210°) 15.0mph 11°C 7°C
15/01/19 19:20 EGAE 151920Z 21009KT 9999 FEW013 BKN021 10/07 Q1004 SSW (210°) 10.4mph 10°C 7°C
15/01/19 18:50 EGAE 151850Z 22012KT 9999 FEW013 BKN023 11/07 Q1005 SW (220°) 13.8mph 11°C 7°C
15/01/19 18:20 EGAE 151820Z 21008KT 170V230 9999 FEW015 BKN022 10/07 Q1005 SSW (210°) 9.2mph 10°C 7°C
15/01/19 17:20 EGAE 151720Z 21010KT 9999 FEW016 SCT028 10/07 Q1006 SSW (210°) 11.5mph 10°C 7°C
15/01/19 16:50 EGAE 151650Z 22016KT 9999 FEW015 SCT030 10/07 Q1006 SW (220°) 18.4mph 10°C 7°C
15/01/19 16:20 EGAE 151620Z 22015KT 9999 FEW018 SCT036 10/07 Q1006 SW (220°) 17.3mph 10°C 7°C
15/01/19 15:50 EGAE 151550Z 22014KT 9999 -SHRA FEW014 BKN017 10/08 Q1007 -SHRA SW (220°) 16.1mph 10°C 8°C
15/01/19 15:20 EGAE 151520Z 21015KT 9999 6000W VCSH FEW012 SCT017 BKN038 10/08 Q1007 VCSH SSW (210°) 17.3mph 10°C 8°C
15/01/19 14:50 EGAE 151450Z 22015KT 9999 VCSH FEW016 SCT038 10/08 Q1008 VCSH SW (220°) 17.3mph 10°C 8°C
15/01/19 14:20 EGAE 151420Z 22015KT 9999 -SHRA FEW013 BKN016 10/08 Q1008 -SHRA SW (220°) 17.3mph 10°C 8°C
15/01/19 13:50 EGAE 151350Z 22016KT 9999 -SHRA FEW013 BKN016 10/08 Q1008 -SHRA SW (220°) 18.4mph 10°C 8°C
15/01/19 13:20 EGAE 151320Z 22015KT 9999 VCSH FEW014 BKN019 10/08 Q1009 VCSH SW (220°) 17.3mph 10°C 8°C
15/01/19 12:50 EGAE 151250Z 22013KT 9999 SCT015 BKN030 10/07 Q1010 SW (220°) 15.0mph 10°C 7°C
15/01/19 12:20 EGAE 151220Z 22017KT 9999 -RADZ FEW015 BKN036 10/07 Q1010 -RA -DZ SW (220°) 19.6mph 10°C 7°C
15/01/19 11:50 EGAE 151150Z 23017KT 9999 FEW025 SCT036 BKN042 10/06 Q1011 SW (230°) 19.6mph 10°C 6°C
15/01/19 11:20 EGAE 151120Z 23020KT 9999 FEW025 SCT042 10/06 Q1011 SW (230°) 23.0mph 10°C 6°C
15/01/19 10:50 EGAE 151050Z 23015KT 9999 FEW022 BKN042 10/07 Q1012 SW (230°) 17.3mph 10°C 7°C
15/01/19 10:20 EGAE 151020Z 23015KT 9999 FEW022 BKN046 10/07 Q1012 SW (230°) 17.3mph 10°C 7°C
15/01/19 09:50 EGAE 150950Z 23015KT 9999 FEW025 BKN044 10/07 Q1012 SW (230°) 17.3mph 10°C 7°C
15/01/19 09:20 EGAE 150920Z 23016G26KT 9999 FEW025 BKN044 10/06 Q1012 SW (230°) 18.4mph 29.9mph 10°C 6°C
15/01/19 08:50 EGAE 150850Z 23016KT 9999 FEW025 BKN044 10/06 Q1012 SW (230°) 18.4mph 10°C 6°C
14/01/19 21:50 EGAE 142150Z 23011KT 9999 FEW018 SCT040 09/08 Q1017 SW (230°) 12.7mph 9°C 8°C
14/01/19 21:20 EGAE 142120Z 23011KT 9999 FEW018 SCT035 09/08 Q1017 SW (230°) 12.7mph 9°C 8°C
14/01/19 20:50 EGAE 142050Z 23014KT 9999 FEW010 SCT028 09/08 Q1017 SW (230°) 16.1mph 9°C 8°C
14/01/19 20:20 EGAE 142020Z 24014KT 9000 -DZ SCT011 BKN028 09/08 Q1018 -DZ WSW (240°) 16.1mph 9°C 8°C
14/01/19 19:50 EGAE 141950Z 24014KT 8000 -DZ BKN011 09/08 Q1018 -DZ WSW (240°) 16.1mph 9°C 8°C
14/01/19 19:20 EGAE 141920Z 24013KT 8000 -DZ BKN011 09/09 Q1018 -DZ WSW (240°) 15.0mph 9°C 9°C
14/01/19 18:50 EGAE 141850Z 24015KT 9999 FEW011 SCT015 BKN037 09/07 Q1018 WSW (240°) 17.3mph 9°C 7°C
14/01/19 18:20 EGAE 141820Z 22015KT 9000 -RADZ FEW007 BKN011 09/07 Q1018 -RA -DZ SW (220°) 17.3mph 9°C 7°C
14/01/19 17:50 EGAE 141750Z 22013KT 8000 -RADZ FEW007 BKN011 09/07 Q1018 -RA -DZ SW (220°) 15.0mph 9°C 7°C
14/01/19 17:20 EGAE 141720Z 22012KT 5000 RADZ FEW007 BKN011 BKN035 09/08 Q1018 RA DZ SW (220°) 13.8mph 9°C 8°C
14/01/19 16:50 EGAE 141650Z 22010KT 9000 -RADZ FEW007 SCT011 BKN035 09/08 Q1019 -RA -DZ SW (220°) 11.5mph 9°C 8°C
14/01/19 16:20 EGAE 141620Z 22010KT 9999 VCSH FEW007 BKN012 09/07 Q1019 VCSH SW (220°) 11.5mph 9°C 7°C
14/01/19 15:50 EGAE 141550Z 22012KT 9999 VCSH FEW007 BKN012 09/07 Q1019 VCSH SW (220°) 13.8mph 9°C 7°C
14/01/19 15:20 EGAE 141520Z 22012KT 9999 FEW007 BKN012 08/07 Q1019 SW (220°) 13.8mph 8°C 7°C
14/01/19 13:50 EGAE 141350Z 23010KT 9999 SCT031 09/06 Q1021 SW (230°) 11.5mph 9°C 6°C
14/01/19 12:50 EGAE 141250Z 25008KT 9999 FEW012 SCT031 09/06 Q1021 WSW (250°) 9.2mph 9°C 6°C
14/01/19 12:20 EGAE 141220Z 26014KT 9999 VCSH FEW012 BKN026 08/05 Q1021 VCSH W (260°) 16.1mph 8°C 5°C
14/01/19 11:50 EGAE 141150Z 23010KT 9999 VCSH FEW011 BKN036 09/06 Q1021 VCSH SW (230°) 11.5mph 9°C 6°C
14/01/19 10:50 EGAE 141050Z 22008KT 9999 VCSH FEW014 BKN030 08/06 Q1022 VCSH SW (220°) 9.2mph 8°C 6°C
14/01/19 10:20 EGAE 141020Z 25010KT 9999 VCSH FEW014 BKN031 07/05 Q1022 VCSH WSW (250°) 11.5mph 7°C 5°C
14/01/19 09:50 EGAE 140950Z 24010KT 9999 VCSH FEW012 SCT024 BKN042 08/05 Q1022 VCSH WSW (240°) 11.5mph 8°C 5°C
14/01/19 08:50 EGAE 140850Z 22006KT 9999 FEW022 BKN046 08/05 Q1021 SW (220°) 6.9mph 8°C 5°C
14/01/19 08:20 EGAE 140820Z 27010KT 9999 FEW022 BKN036 07/04 Q1021 W (270°) 11.5mph 7°C 4°C
14/01/19 07:20 EGAE 140720Z 26009KT 9999 FEW014 BKN046 06/04 Q1021 W (260°) 10.4mph 6°C 4°C
14/01/19 06:50 EGAE 140650Z 30013KT 9999 -SHRA FEW014 BKN032 08/05 Q1021 -SHRA WNW (300°) 15.0mph 8°C 5°C
14/01/19 06:20 EGAE 140620Z 29010KT 9999 FEW014 BKN042 08/04 Q1021 WNW (290°) 11.5mph 8°C 4°C
14/01/19 05:50 EGAE 140550Z 29014KT 9999 FEW014 BKN038 08/04 Q1021 WNW (290°) 16.1mph 8°C 4°C
13/01/19 21:20 EGAE 132120Z 28013KT 9999 -SHRA FEW010 SCT027 BKN033 08/04 Q1017 -SHRA W (280°) 15.0mph 8°C 4°C
13/01/19 20:50 EGAE 132050Z 27013KT 9999 FEW010 SCT027 BKN038 08/05 Q1017 W (270°) 15.0mph 8°C 5°C
13/01/19 19:50 EGAE 131950Z 29011KT 9999 -SHRA FEW012 BKN031 09/05 Q1017 -SHRA WNW (290°) 12.7mph 9°C 5°C
13/01/19 19:20 EGAE 131920Z 29017KT 9999 -SHRA FEW010 BKN030 09/05 Q1016 -SHRA WNW (290°) 19.6mph 9°C 5°C
13/01/19 18:50 EGAE 131850Z 29018G32KT 9999 VCSH FEW010 SCT030 BKN048 08/04 Q1016 RESHRA VCSH WNW (290°) 20.7mph 36.8mph 8°C 4°C
13/01/19 18:20 EGAE 131820Z 28018G28KT 9999 FEW012 SCT028 BKN049 09/05 Q1015 W (280°) 20.7mph 32.2mph 9°C 5°C
13/01/19 17:50 EGAE 131750Z 28019KT 9999 FEW012 SCT028 08/05 Q1015 W (280°) 21.9mph 8°C 5°C
13/01/19 17:20 EGAE 131720Z 28019KT 9999 FEW012 BKN028 09/06 Q1015 W (280°) 21.9mph 9°C 6°C
13/01/19 16:50 EGAE 131650Z 27019KT 9999 -SHRA FEW014 SCT025 BKN036 09/05 Q1014 RESHRA -SHRA W (270°) 21.9mph 9°C 5°C
13/01/19 16:20 EGAE 131620Z 27020KT 9999 VCSH FEW013 BKN025 08/05 Q1014 RESHRA VCSH W (270°) 23.0mph 8°C 5°C
13/01/19 15:50 EGAE 131550Z 28020G30KT 9999 VCSH FEW015 BKN032 09/04 Q1014 VCSH W (280°) 23.0mph 34.5mph 9°C 4°C
13/01/19 15:20 EGAE 131520Z 28021KT 9999 FEW017 SCT025 BKN045 10/04 Q1014 W (280°) 24.2mph 10°C 4°C
13/01/19 14:50 EGAE 131450Z 28025KT 9999 FEW018 BKN029 09/05 Q1014 W (280°) 28.8mph 9°C 5°C
13/01/19 14:20 EGAE 131420Z 29022KT 9999 FEW022 SCT037 10/05 Q1013 WNW (290°) 25.3mph 10°C 5°C
13/01/19 13:50 EGAE 131350Z 29024KT 9999 VCSH FEW022 BKN037 10/05 Q1013 VCSH WNW (290°) 27.6mph 10°C 5°C
13/01/19 13:20 EGAE 131320Z 28025G35KT 9999 SCT022 BKN042 10/04 Q1014 W (280°) 28.8mph 40.3mph 10°C 4°C
13/01/19 12:50 EGAE 131250Z 29022G35KT 9999 FEW018 BKN030 10/06 Q1013 WNW (290°) 25.3mph 40.3mph 10°C 6°C
13/01/19 12:20 EGAE 131220Z 29024G34KT 9999 VCSH FEW016 BKN024 10/07 Q1013 VCSH WNW (290°) 27.6mph 39.1mph 10°C 7°C
13/01/19 11:50 EGAE 131150Z 28023KT 9999 7000NE -SHRA FEW017 BKN028 11/07 Q1013 -SHRA W (280°) 26.5mph 11°C 7°C
13/01/19 11:20 EGAE 131120Z 28025G37KT 9999 VCSH FEW016 BKN025 11/07 Q1013 VCSH W (280°) 28.8mph 42.6mph 11°C 7°C
13/01/19 10:50 EGAE 131050Z 28020G31KT 9999 VCSH FEW016 BKN021 11/08 Q1013 VCSH W (280°) 23.0mph 35.7mph 11°C 8°C
13/01/19 10:20 EGAE 131020Z 28024KT 9999 VCSH FEW012 BKN021 11/08 Q1013 VCSH W (280°) 27.6mph 11°C 8°C
12/01/19 15:50 EGAE 121550Z 26016KT 9999 FEW010 12/09 Q1020 W (260°) 18.4mph 12°C 9°C
12/01/19 15:20 EGAE 121520Z 26015G25KT 9999 FEW010 12/09 Q1020 W (260°) 17.3mph 28.8mph 12°C 9°C
12/01/19 14:50 EGAE 121450Z 26016KT 9999 FEW015 SCT020 13/10 Q1020 W (260°) 18.4mph 13°C 10°C
12/01/19 14:20 EGAE 121420Z 26018KT 9999 FEW014 BKN018 12/09 Q1020 W (260°) 20.7mph 12°C 9°C
12/01/19 13:50 EGAE 121350Z 26019G29KT 9999 FEW012 SCT015 12/09 Q1020 W (260°) 21.9mph 33.4mph 12°C 9°C
12/01/19 12:50 EGAE 121250Z 25016KT 9999 -RA SCT008 OVC012 11/09 Q1021 -RA WSW (250°) 18.4mph 11°C 9°C
12/01/19 12:20 EGAE 121220Z 26017KT 9000 -RADZ SCT006 OVC010 10/09 Q1021 -RA -DZ W (260°) 19.6mph 10°C 9°C
12/01/19 11:50 EGAE 121150Z 25014KT 9999 SCT006 OVC010 10/08 Q1021 WSW (250°) 16.1mph 10°C 8°C
12/01/19 11:20 EGAE 121120Z 25013KT 8000 -RADZ FEW005 OVC008 09/08 Q1022 -RA -DZ WSW (250°) 15.0mph 9°C 8°C
12/01/19 10:50 EGAE 121050Z 25014KT 5000 -RADZ FEW005 OVC008 09/08 Q1022 -RA -DZ WSW (250°) 16.1mph 9°C 8°C
12/01/19 10:20 EGAE 121020Z 25013KT 7000 -RADZ FEW008 OVC010 09/08 Q1022 -RA -DZ WSW (250°) 15.0mph 9°C 8°C
12/01/19 09:50 EGAE 120950Z 24012KT 9000 -DZ FEW010 BKN014 09/07 Q1022 -DZ WSW (240°) 13.8mph 9°C 7°C
12/01/19 09:20 EGAE 120920Z 25012KT 9000 VCSH SCT014 BKN019 09/07 Q1023 VCSH WSW (250°) 13.8mph 9°C 7°C
12/01/19 08:50 EGAE 120850Z 25011KT 9999 SCT014 BKN019 10/07 Q1023 WSW (250°) 12.7mph 10°C 7°C
12/01/19 08:20 EGAE 120820Z 24009KT 9999 VCSH FEW008 BKN014 09/07 Q1022 VCSH WSW (240°) 10.4mph 9°C 7°C
12/01/19 07:50 EGAE 120750Z 24009KT 9999 FEW008 BKN017 09/07 Q1022 WSW (240°) 10.4mph 9°C 7°C
11/01/19 20:50 EGAE 112050Z 22012KT 8000 -RA FEW007 BKN009 09/08 Q1026 -RA SW (220°) 13.8mph 9°C 8°C
11/01/19 20:20 EGAE 112020Z 23013KT 9999 FEW007 BKN010 09/08 Q1027 SW (230°) 15.0mph 9°C 8°C
11/01/19 19:50 EGAE 111950Z 24014KT 9999 FEW008 BKN014 10/08 Q1027 WSW (240°) 16.1mph 10°C 8°C
11/01/19 19:20 EGAE 111920Z 24015KT 9999 FEW008 SCT012 BKN019 09/08 Q1027 WSW (240°) 17.3mph 9°C 8°C
11/01/19 18:50 EGAE 111850Z 24012KT 9999 FEW006 BKN011 09/08 Q1028 WSW (240°) 13.8mph 9°C 8°C
11/01/19 18:20 EGAE 111820Z 23011KT 9999 -RA FEW005 BKN013 09/08 Q1028 -RA SW (230°) 12.7mph 9°C 8°C
11/01/19 17:50 EGAE 111750Z 23011KT 9999 FEW006 BKN016 09/07 Q1028 SW (230°) 12.7mph 9°C 7°C
11/01/19 17:20 EGAE 111720Z 23011KT 9999 FEW006 BKN025 09/08 Q1029 SW (230°) 12.7mph 9°C 8°C
11/01/19 16:50 EGAE 111650Z 23011KT 9999 VCSH FEW006 SCT023 09/08 Q1029 VCSH SW (230°) 12.7mph 9°C 8°C
11/01/19 16:20 EGAE 111620Z 25010KT 8000 VCSH FEW006 BKN010 09/08 Q1029 VCSH WSW (250°) 11.5mph 9°C 8°C
11/01/19 15:50 EGAE 111550Z 25012KT 6000 -RA FEW007 BKN011 10/08 Q1029 -RA WSW (250°) 13.8mph 10°C 8°C
11/01/19 15:20 EGAE 111520Z 24010KT 9999 6000NW VCSH FEW004 SCT013 BKN026 10/08 Q1029 VCSH WSW (240°) 11.5mph 10°C 8°C
11/01/19 14:50 EGAE 111450Z 24012KT 9999 VCSH FEW007 SCT012 BKN034 10/08 Q1030 VCSH WSW (240°) 13.8mph 10°C 8°C
11/01/19 14:20 EGAE 111420Z 24011KT 9999 FEW007 SCT016 BKN039 10/08 Q1030 WSW (240°) 12.7mph 10°C 8°C
11/01/19 13:50 EGAE 111350Z 23010KT 9999 FEW009 SCT015 BKN039 10/08 Q1030 SW (230°) 11.5mph 10°C 8°C
11/01/19 13:20 EGAE 111320Z 24011KT 9999 FEW010 SCT019 BKN032 10/08 Q1031 WSW (240°) 12.7mph 10°C 8°C
11/01/19 12:50 EGAE 111250Z 24012KT 9999 FEW008 SCT019 BKN031 11/08 Q1031 WSW (240°) 13.8mph 11°C 8°C
11/01/19 11:50 EGAE 111150Z 24008KT 9999 FEW007 SCT014 BKN034 10/08 Q1032 WSW (240°) 9.2mph 10°C 8°C
11/01/19 11:20 EGAE 111120Z 24008KT 9999 FEW007 SCT011 BKN024 10/08 Q1032 WSW (240°) 9.2mph 10°C 8°C
11/01/19 10:50 EGAE 111050Z 23009KT 9000 FEW007 SCT022 BKN040 10/08 Q1032 SW (230°) 10.4mph 10°C 8°C
11/01/19 10:20 EGAE 111020Z 23006KT 9999 FEW007 BKN040 10/08 Q1032 SW (230°) 6.9mph 10°C 8°C
11/01/19 09:20 EGAE 110920Z 23005KT 9999 FEW011 BKN038 09/08 Q1033 SW (230°) 5.8mph 9°C 8°C
11/01/19 08:50 EGAE 110850Z 23007KT 9999 FEW013 SCT025 BKN037 10/08 Q1032 SW (230°) 8.1mph 10°C 8°C
11/01/19 08:20 EGAE 110820Z 24005KT 9999 FEW015 SCT025 BKN036 09/08 Q1032 WSW (240°) 5.8mph 9°C 8°C
11/01/19 07:50 EGAE 110750Z 23005KT 9999 FEW015 SCT028 BKN040 09/07 Q1032 SW (230°) 5.8mph 9°C 7°C
11/01/19 06:50 EGAE 110650Z 22006KT 9999 FEW015 SCT030 BKN045 09/07 Q1032 SW (220°) 6.9mph 9°C 7°C
11/01/19 06:20 EGAE 110620Z 23007KT 9999 FEW015 SCT030 BKN045 09/07 Q1033 SW (230°) 8.1mph 9°C 7°C
10/01/19 20:50 EGAE 102050Z 28005KT 9999 FEW015 BKN049 08/07 Q1034 W (280°) 5.8mph 8°C 7°C
10/01/19 20:20 EGAE 102020Z 28006KT 9999 FEW015 BKN049 07/05 Q1034 W (280°) 6.9mph 7°C 5°C
10/01/19 19:20 EGAE 101920Z 28007KT 9999 FEW013 BKN049 09/07 Q1034 W (280°) 8.1mph 9°C 7°C
10/01/19 18:50 EGAE 101850Z 28008KT 9999 FEW013 09/07 Q1033 W (280°) 9.2mph 9°C 7°C
10/01/19 18:20 EGAE 101820Z 27007KT 9999 FEW013 10/08 Q1033 W (270°) 8.1mph 10°C 8°C
10/01/19 17:50 EGAE 101750Z 26006KT 9999 FEW013 10/08 Q1033 W (260°) 6.9mph 10°C 8°C
10/01/19 17:20 EGAE 101720Z 26006KT 9999 FEW013 BKN049 10/08 Q1033 W (260°) 6.9mph 10°C 8°C
10/01/19 16:50 EGAE 101650Z 27005KT 9999 FEW012 SCT027 BKN049 09/07 Q1033 W (270°) 5.8mph 9°C 7°C
10/01/19 16:20 EGAE 101620Z 30004KT 9999 FEW012 SCT028 09/08 Q1033 WNW (300°) 4.6mph 9°C 8°C
10/01/19 15:50 EGAE 101550Z 29007G17KT 260V320 6000 -DZ FEW012 10/08 Q1033 -DZ WNW (290°) 8.1mph 19.6mph 10°C 8°C
10/01/19 15:20 EGAE 101520Z 25006KT 9999 FEW014 10/07 Q1033 WSW (250°) 6.9mph 10°C 7°C
10/01/19 14:50 EGAE 101450Z 25006KT 9999 FEW014 10/07 Q1033 WSW (250°) 6.9mph 10°C 7°C
10/01/19 14:20 EGAE 101420Z 24006KT CAVOK 10/08 Q1033 WSW (240°) 6.9mph 10°C 8°C
10/01/19 13:50 EGAE 101350Z 24006KT CAVOK 10/08 Q1033 WSW (240°) 6.9mph 10°C 8°C
10/01/19 13:20 EGAE 101320Z 23006KT CAVOK 10/08 Q1033 SW (230°) 6.9mph 10°C 8°C
10/01/19 12:50 EGAE 101250Z 23006KT 9999 FEW035 10/08 Q1033 SW (230°) 6.9mph 10°C 8°C
10/01/19 11:50 EGAE 101150Z 23006KT 9999 FEW035 10/08 Q1033 SW (230°) 6.9mph 10°C 8°C
10/01/19 10:50 EGAE 101050Z 23006KT 9999 FEW030 10/08 Q1034 SW (230°) 6.9mph 10°C 8°C
10/01/19 10:20 EGAE 101020Z 22005KT 9999 FEW030 10/08 Q1033 SW (220°) 5.8mph 10°C 8°C
10/01/19 09:50 EGAE 100950Z 22004KT 9999 FEW030 09/08 Q1033 SW (220°) 4.6mph 9°C 8°C
10/01/19 08:50 EGAE 100850Z 23005KT 9999 FEW028 09/07 Q1033 SW (230°) 5.8mph 9°C 7°C
10/01/19 08:20 EGAE 100820Z 26005KT 220V290 9999 FEW028 10/07 Q1033 W (260°) 5.8mph 10°C 7°C
10/01/19 07:50 EGAE 100750Z 27005KT 250V320 9999 FEW028 10/07 Q1033 W (270°) 5.8mph 10°C 7°C
10/01/19 07:20 EGAE 100720Z VRB03KT 9999 FEW028 11/07 Q1033 N (0°) 3.5mph 11°C 7°C
10/01/19 06:50 EGAE 100650Z 31005KT 260V010 9999 SCT025 10/07 Q1032 NW (310°) 5.8mph 10°C 7°C
10/01/19 06:20 EGAE 100620Z VRB03KT 9999 SCT025 11/08 Q1032 N (0°) 3.5mph 11°C 8°C
10/01/19 05:50 EGAE 100550Z VRB01KT 9999 SCT028 11/09 Q1032 N (0°) 1.2mph 11°C 9°C
9/01/19 20:50 EGAE 092050Z 21006KT 6000 OVC008 09/09 Q1032 SSW (210°) 6.9mph 9°C 9°C